Time;durP1;ratioP1;P1;durP2;ratioP2;P2;SDS_P1;SDS_P2;PMS_P1;PMS_P2;Temp;Humidity;BMP_temperature;BMP_pressure;BME280_temperature;BME280_humidity;BME280_pressure;Samples;Min_cycle;Max_cycle;Signal;HPM_P1;HPM_P2
2023/05/08 00:02:24;;;;;;;;;;;;;;;13.91;100.00;95879.13;10438300;28;1910;-74
2023/05/08 00:07:26;;;;;;;;;;;;;;;13.86;100.00;95879.97;10431427;28;2045;-73
2023/05/08 00:12:29;;;;;;;;;;;;;;;13.93;100.00;95885.84;10435349;28;1910;-72
2023/05/08 00:17:31;;;;;;;;;;;;;;;13.96;100.00;95881.75;10437427;28;2124;-77
2023/05/08 00:22:34;;;;;;;;;;;;;;;13.89;100.00;95884.81;10444004;28;1907;-74
2023/05/08 00:27:36;;;;;;;;;;;;;;;13.86;100.00;95890.78;10434214;28;1899;-74
2023/05/08 00:32:39;;;;;;;;;;;;;;;13.91;100.00;95890.72;10441618;28;1986;-73
2023/05/08 00:37:42;;;;;;;;;;;;;;;13.77;100.00;95893.34;10437891;28;2066;-74
2023/05/08 00:42:44;;;;;;;;;;;;;;;13.73;100.00;95899.63;10433815;28;1887;-73
2023/05/08 00:47:47;;;;;;;;;;;;;;;13.60;100.00;95892.22;10437238;28;1973;-73
2023/05/08 00:52:49;;;;;;;;;;;;;;;13.60;100.00;95894.94;10442917;28;2139;-73
2023/05/08 00:57:52;;;;;;;;;;;;;;;13.45;100.00;95890.53;10445676;28;5297;-77
2023/05/08 01:02:54;;;;;;;;;;;;;;;13.42;100.00;95897.31;10418388;28;1888;-75
2023/05/08 01:07:56;;;;;;;;;;;;;;;13.45;100.00;95899.44;10430557;28;1956;-73
2023/05/08 01:12:59;;;;;;;;;;;;;;;13.34;100.00;95903.34;10441403;28;1987;-74
2023/05/08 01:18:02;;;;;;;;;;;;;;;13.32;100.00;95894.72;10442610;28;1982;-74
2023/05/08 01:23:04;;;;;;;;;;;;;;;13.28;100.00;95907.19;10428746;28;2042;-73
2023/05/08 01:28:06;;;;;;;;;;;;;;;13.30;100.00;95907.72;10435108;28;2242;-73
2023/05/08 01:33:09;;;;;;;;;;;;;;;13.29;100.00;95911.47;10446583;28;2113;-75
2023/05/08 01:38:11;;;;;;;;;;;;;;;13.24;100.00;95922.34;10429782;28;2029;-72
2023/05/08 01:43:14;;;;;;;;;;;;;;;13.28;100.00;95939.56;10436572;28;2148;-74
2023/05/08 01:48:16;;;;;;;;;;;;;;;13.23;100.00;95936.91;10441625;28;1879;-72
2023/05/08 01:53:18;;;;;;;;;;;;;;;13.07;100.00;95933.56;10438490;28;1984;-73
2023/05/08 01:58:21;;;;;;;;;;;;;;;12.96;100.00;95938.25;10447619;28;5213;-73
2023/05/08 02:03:23;;;;;;;;;;;;;;;13.00;100.00;95943.88;10424582;28;1904;-74
2023/05/08 02:08:26;;;;;;;;;;;;;;;12.91;100.00;95940.19;10445706;28;1854;-73
2023/05/08 02:13:29;;;;;;;;;;;;;;;12.86;100.00;95942.94;10439666;28;2135;-71
2023/05/08 02:18:31;;;;;;;;;;;;;;;12.79;100.00;95942.44;10451407;28;1926;-72
2023/05/08 02:23:33;;;;;;;;;;;;;;;12.72;100.00;95942.78;10446207;28;2041;-73
2023/05/08 02:28:36;;;;;;;;;;;;;;;12.61;100.00;95941.28;10442700;28;2027;-73
2023/05/08 02:33:38;;;;;;;;;;;;;;;12.51;100.00;95941.34;10447974;28;2129;-73
2023/05/08 02:38:40;;;;;;;;;;;;;;;12.47;100.00;95945.66;10444570;28;1970;-74
2023/05/08 02:43:43;;;;;;;;;;;;;;;12.44;100.00;95955.13;10448642;28;2068;-74
2023/05/08 02:48:45;;;;;;;;;;;;;;;12.38;100.00;95959.75;10446727;28;1922;-74
2023/05/08 02:53:47;;;;;;;;;;;;;;;12.26;100.00;95958.50;10430022;28;2040;-73
2023/05/08 02:58:50;;;;;;;;;;;;;;;12.16;100.00;95948.59;10441182;28;5397;-73
2023/05/08 03:03:52;;;;;;;;;;;;;;;12.16;100.00;95956.69;10435356;28;1844;-73
2023/05/08 03:08:54;;;;;;;;;;;;;;;12.02;100.00;95956.47;10435112;28;1893;-73
2023/05/08 03:13:57;;;;;;;;;;;;;;;11.87;100.00;95965.44;10438258;28;2109;-74
2023/05/08 03:18:59;;;;;;;;;;;;;;;11.77;100.00;95964.63;10439372;28;1859;-73
2023/05/08 03:24:02;;;;;;;;;;;;;;;11.76;100.00;95958.44;10443872;28;2143;-74
2023/05/08 03:29:04;;;;;;;;;;;;;;;11.58;100.00;95967.16;10442396;28;2141;-73
2023/05/08 03:34:06;;;;;;;;;;;;;;;11.50;100.00;95965.03;10441281;28;1906;-76
2023/05/08 03:39:09;;;;;;;;;;;;;;;11.43;100.00;95970.69;10437583;28;1906;-76
2023/05/08 03:44:11;;;;;;;;;;;;;;;11.32;100.00;95974.47;10438657;28;2025;-77
2023/05/08 03:49:14;;;;;;;;;;;;;;;11.32;100.00;95971.78;10441189;28;1969;-74
2023/05/08 03:54:16;;;;;;;;;;;;;;;11.24;100.00;95973.16;10441265;28;1958;-73
2023/05/08 03:59:18;;;;;;;;;;;;;;;11.31;100.00;95973.69;10424615;28;5199;-72
2023/05/08 04:04:23;;;;;;;;;;;;;;;11.34;100.00;95975.84;10435385;28;1978;-72
2023/05/08 04:09:25;;;;;;;;;;;;;;;11.24;100.00;95983.94;10441172;28;2045;-73
2023/05/08 04:14:28;;;;;;;;;;;;;;;11.09;100.00;95997.41;10440473;28;1914;-73
2023/05/08 04:19:30;;;;;;;;;;;;;;;11.10;100.00;95999.81;10433354;28;1894;-74
2023/05/08 04:24:32;;;;;;;;;;;;;;;11.12;100.00;96004.13;10429995;28;2049;-72
2023/05/08 04:29:35;;;;;;;;;;;;;;;11.01;100.00;96004.16;10442019;28;2121;-73
2023/05/08 04:34:37;;;;;;;;;;;;;;;10.94;100.00;96005.47;10440153;28;1910;-73
2023/05/08 04:39:39;;;;;;;;;;;;;;;10.94;100.00;96016.25;10438249;28;1847;-73
2023/05/08 04:44:46;;;;;;;;;;;;;;;11.01;100.00;96014.91;10437593;28;2041;-72
2023/05/08 04:49:48;;;;;;;;;;;;;;;10.77;100.00;96017.34;10437683;28;1866;-72
2023/05/08 04:54:50;;;;;;;;;;;;;;;10.83;100.00;96021.63;10439029;28;1898;-73
2023/05/08 04:59:53;;;;;;;;;;;;;;;10.81;100.00;96031.88;10435862;28;5189;-73
2023/05/08 05:04:57;;;;;;;;;;;;;;;10.81;100.00;96031.88;10444059;28;1990;-74
2023/05/08 05:10:00;;;;;;;;;;;;;;;10.83;100.00;96032.41;10435280;28;1935;-74
2023/05/08 05:15:03;;;;;;;;;;;;;;;10.85;100.00;96040.19;10433439;28;1973;-73
2023/05/08 05:20:07;;;;;;;;;;;;;;;10.64;100.00;96050.13;10431434;28;2075;-73
2023/05/08 05:25:09;;;;;;;;;;;;;;;10.81;100.00;96050.69;10436335;28;2001;-73
2023/05/08 05:30:12;;;;;;;;;;;;;;;10.79;100.00;96047.44;10429535;28;1899;-73
2023/05/08 05:35:15;;;;;;;;;;;;;;;10.73;100.00;96053.88;10431122;28;1929;-75
2023/05/08 05:40:19;;;;;;;;;;;;;;;11.07;100.00;96053.38;10438573;28;1906;-72
2023/05/08 05:45:21;;;;;;;;;;;;;;;10.94;100.00;96053.91;10441689;28;1908;-76
2023/05/08 05:50:23;;;;;;;;;;;;;;;11.23;100.00;96057.66;10436397;28;2010;-75
2023/05/08 05:55:26;;;;;;;;;;;;;;;10.76;100.00;96064.13;10435283;28;5098;-75
2023/05/08 06:00:29;;;;;;;;;;;;;;;10.82;100.00;96075.69;10436636;28;1918;-76
2023/05/08 06:05:31;;;;;;;;;;;;;;;10.86;100.00;96075.94;10442547;28;1911;-73
2023/05/08 06:10:35;;;;;;;;;;;;;;;10.96;100.00;96071.41;10431192;28;1883;-78
2023/05/08 06:15:37;;;;;;;;;;;;;;;10.87;100.00;96077.56;10435470;28;2079;-77
2023/05/08 06:20:40;;;;;;;;;;;;;;;11.15;100.00;96065.47;10416254;28;2081;-77
2023/05/08 06:25:42;;;;;;;;;;;;;;;11.25;100.00;96070.84;10430802;28;1971;-76
2023/05/08 06:30:45;;;;;;;;;;;;;;;11.01;100.00;96086.75;10433579;28;1872;-77
2023/05/08 06:35:47;;;;;;;;;;;;;;;11.14;100.00;96080.81;10432219;28;2051;-77
2023/05/08 06:40:50;;;;;;;;;;;;;;;11.46;100.00;96077.84;10438595;28;2053;-76
2023/05/08 06:45:52;;;;;;;;;;;;;;;11.42;100.00;96084.03;10447450;28;2033;-74
2023/05/08 06:50:55;;;;;;;;;;;;;;;11.69;100.00;96087.19;10445580;28;2024;-76
2023/05/08 06:55:58;;;;;;;;;;;;;;;11.61;100.00;96087.75;10451861;28;1918;-76
2023/05/08 07:01:00;;;;;;;;;;;;;;;11.48;100.00;96085.63;10447214;28;1840;-78
2023/05/08 07:06:03;;;;;;;;;;;;;;;11.89;100.00;96089.88;10461986;28;1934;-76
2023/05/08 07:11:08;;;;;;;;;;;;;;;12.37;100.00;96087.53;10446707;28;2018;-76
2023/05/08 07:16:11;;;;;;;;;;;;;;;12.38;100.00;96093.75;10451982;28;1914;-75
2023/05/08 07:21:14;;;;;;;;;;;;;;;12.99;100.00;96083.41;10450260;28;1823;-78
2023/05/08 07:26:17;;;;;;;;;;;;;;;12.51;100.00;96086.94;10446938;28;2209;-73
2023/05/08 07:31:19;;;;;;;;;;;;;;;12.70;100.00;96090.59;10446780;28;1874;-72
2023/05/08 07:36:22;;;;;;;;;;;;;;;12.94;100.00;96091.53;10458462;28;1965;-72
2023/05/08 07:41:26;;;;;;;;;;;;;;;13.27;100.00;96094.56;10451199;28;2255;-72
2023/05/08 07:46:28;;;;;;;;;;;;;;;13.20;100.00;96097.56;10451702;28;1871;-76
2023/05/08 07:51:32;;;;;;;;;;;;;;;12.88;100.00;96086.44;10449271;28;1898;-76
2023/05/08 07:56:34;;;;;;;;;;;;;;;13.29;100.00;96096.97;10453106;28;5236;-74
2023/05/08 08:01:36;;;;;;;;;;;;;;;13.64;100.00;96093.16;10462694;28;1932;-75
2023/05/08 08:06:39;;;;;;;;;;;;;;;14.02;100.00;96089.50;10452518;28;2160;-77
2023/05/08 08:11:41;;;;;;;;;;;;;;;13.58;100.00;96086.19;10455862;28;1915;-78
2023/05/08 08:16:44;;;;;;;;;;;;;;;13.89;100.00;96092.88;10449634;28;1981;-75
2023/05/08 08:21:46;;;;;;;;;;;;;;;14.54;100.00;96087.81;10462252;28;1888;-72
2023/05/08 08:26:49;;;;;;;;;;;;;;;14.17;100.00;96090.41;10449180;28;1978;-74
2023/05/08 08:31:51;;;;;;;;;;;;;;;14.02;100.00;96100.31;10449216;28;1894;-75
2023/05/08 08:36:54;;;;;;;;;;;;;;;14.62;100.00;96090.97;10448683;28;1981;-73
2023/05/08 08:41:56;;;;;;;;;;;;;;;14.82;100.00;96091.50;10441013;28;1827;-73
2023/05/08 08:46:59;;;;;;;;;;;;;;;14.52;100.00;96092.72;10445309;28;1844;-72
2023/05/08 08:52:01;;;;;;;;;;;;;;;14.80;100.00;96101.00;10446005;28;1859;-74
2023/05/08 08:57:04;;;;;;;;;;;;;;;14.92;100.00;96095.16;10449537;28;5166;-73
2023/05/08 09:02:06;;;;;;;;;;;;;;;14.45;100.00;96103.06;10445867;28;1929;-74
2023/05/08 09:07:09;;;;;;;;;;;;;;;14.61;100.00;96084.75;10449067;28;2041;-72
2023/05/08 09:12:12;;;;;;;;;;;;;;;14.60;100.00;96089.34;10442871;28;1978;-72
2023/05/08 09:17:16;;;;;;;;;;;;;;;15.11;100.00;96087.81;10452345;28;2240;-75
2023/05/08 09:22:19;;;;;;;;;;;;;;;15.41;100.00;96091.94;10442601;28;1893;-72
2023/05/08 09:27:21;;;;;;;;;;;;;;;15.94;100.00;96089.66;10444129;28;1955;-73
2023/05/08 09:32:23;;;;;;;;;;;;;;;16.10;100.00;96089.41;10440190;28;2021;-73
2023/05/08 09:37:26;;;;;;;;;;;;;;;17.09;100.00;96085.94;10448301;28;1981;-77
2023/05/08 09:42:28;;;;;;;;;;;;;;;17.26;100.00;96088.81;10437715;28;2081;-73
2023/05/08 09:47:31;;;;;;;;;;;;;;;16.18;100.00;96094.13;10441046;28;2068;-73
2023/05/08 09:52:33;;;;;;;;;;;;;;;16.46;100.00;96092.97;10436952;28;1964;-74
2023/05/08 09:57:37;;;;;;;;;;;;;;;16.84;100.00;96095.47;10438541;28;5177;-73
2023/05/08 10:02:39;;;;;;;;;;;;;;;16.01;100.00;96097.41;10438173;28;2077;-72
2023/05/08 10:07:42;;;;;;;;;;;;;;;16.36;100.00;96086.97;10446220;28;1899;-71
2023/05/08 10:12:45;;;;;;;;;;;;;;;16.35;100.00;96093.50;10444699;28;1887;-72
2023/05/08 10:17:47;;;;;;;;;;;;;;;16.35;100.00;96094.31;10452968;28;1926;-73
2023/05/08 10:22:53;;;;;;;;;;;;;;;16.75;100.00;96087.25;10453334;28;1926;-73
2023/05/08 10:27:56;;;;;;;;;;;;;;;16.94;100.00;96089.81;10450337;28;2119;-72
2023/05/08 10:32:59;;;;;;;;;;;;;;;16.85;100.00;96075.34;10453685;28;1969;-74
2023/05/08 10:38:02;;;;;;;;;;;;;;;17.25;100.00;96076.34;10451286;28;2034;-71
2023/05/08 10:43:05;;;;;;;;;;;;;;;17.16;100.00;96080.88;10442714;28;1835;-72
2023/05/08 10:48:08;;;;;;;;;;;;;;;16.62;100.00;96087.25;10435339;28;1819;-72
2023/05/08 10:53:11;;;;;;;;;;;;;;;17.26;100.00;96075.22;10459167;28;1569;-73
2023/05/08 10:58:13;;;;;;;;;;;;;;;17.83;100.00;96061.84;10461235;28;2096;-74
2023/05/08 11:03:16;;;;;;;;;;;;;;;17.51;100.00;96067.56;10462777;28;1775;-75
2023/05/08 11:08:33;;;;;;;;;;;;;;;18.03;100.00;96065.13;10455812;28;1991;-72
2023/05/08 11:13:36;;;;;;;;;;;;;;;17.37;100.00;96069.50;10457154;28;1842;-74
2023/05/08 11:18:38;;;;;;;;;;;;;;;17.67;100.00;96068.75;10445447;28;1979;-73
2023/05/08 11:23:50;;;;;;;;;;;;;;;18.32;100.00;96067.28;10452077;28;1896;-73
2023/05/08 11:28:53;;;;;;;;;;;;;;;17.74;100.00;96058.25;10451896;28;1893;-75
2023/05/08 11:33:59;;;;;;;;;;;;;;;17.66;100.00;96061.72;10450520;28;1878;-73
2023/05/08 11:39:02;;;;;;;;;;;;;;;17.81;100.00;96052.38;10445750;28;2069;-71
2023/05/08 11:44:07;;;;;;;;;;;;;;;18.40;100.00;96046.69;10450962;28;1897;-74
2023/05/08 11:49:10;;;;;;;;;;;;;;;18.14;100.00;96050.13;10449524;28;1949;-73
2023/05/08 11:54:13;;;;;;;;;;;;;;;18.19;100.00;96057.34;10445818;28;2085;-73
2023/05/08 11:59:15;;;;;;;;;;;;;;;17.65;100.00;96054.69;10446506;28;1886;-77
2023/05/08 12:04:18;;;;;;;;;;;;;;;17.66;100.00;96056.28;10441051;28;1843;-78
2023/05/08 12:09:21;;;;;;;;;;;;;;;18.07;100.00;96058.75;10438944;28;2057;-73
2023/05/08 12:14:24;;;;;;;;;;;;;;;17.59;100.00;96068.72;10445148;28;1956;-73
2023/05/08 12:19:26;;;;;;;;;;;;;;;18.75;100.00;96058.47;10439289;28;2136;-71
2023/05/08 12:24:29;;;;;;;;;;;;;;;18.14;100.00;96065.66;10446649;28;1894;-74
2023/05/08 12:29:32;;;;;;;;;;;;;;;17.94;100.00;96065.09;10445723;28;2156;-72
2023/05/08 12:34:35;;;;;;;;;;;;;;;18.16;100.00;96058.78;10448540;28;1969;-73
2023/05/08 12:39:37;;;;;;;;;;;;;;;18.68;100.00;96058.94;10440251;28;1848;-72
2023/05/08 12:44:40;;;;;;;;;;;;;;;18.86;100.00;96060.56;10449119;28;1899;-72
2023/05/08 12:49:47;;;;;;;;;;;;;;;18.89;100.00;96059.94;10442606;28;1894;-72
2023/05/08 12:54:50;;;;;;;;;;;;;;;18.82;100.00;96056.06;10440375;28;2077;-73
2023/05/08 12:59:53;;;;;;;;;;;;;;;18.43;100.00;96054.22;10437192;28;5008;-74
2023/05/08 13:04:55;;;;;;;;;;;;;;;17.94;100.00;96050.66;10441444;28;1847;-72
2023/05/08 13:09:58;;;;;;;;;;;;;;;18.18;100.00;96050.28;10438866;28;1868;-76
2023/05/08 13:15:03;;;;;;;;;;;;;;;17.79;100.00;96049.97;10433028;28;1945;-71
2023/05/08 13:20:06;;;;;;;;;;;;;;;17.53;100.00;96047.09;10443867;28;1860;-71
2023/05/08 13:25:08;;;;;;;;;;;;;;;17.86;100.00;96044.09;10447138;28;1854;-72
2023/05/08 13:30:12;;;;;;;;;;;;;;;17.67;100.00;96040.75;10441424;28;1891;-74
2023/05/08 13:35:14;;;;;;;;;;;;;;;17.83;100.00;96042.81;10438633;28;1899;-73
2023/05/08 13:40:17;;;;;;;;;;;;;;;17.82;100.00;96041.22;10436060;28;2132;-73
2023/05/08 13:45:19;;;;;;;;;;;;;;;17.92;100.00;96039.31;10442133;28;1836;-72
2023/05/08 13:50:22;;;;;;;;;;;;;;;17.40;100.00;96028.16;10442889;28;1964;-71
2023/05/08 13:55:24;;;;;;;;;;;;;;;17.14;100.00;96036.94;10443488;28;5055;-71
2023/05/08 14:00:27;;;;;;;;;;;;;;;17.05;100.00;96035.25;10447216;28;1875;-72
2023/05/08 14:05:30;;;;;;;;;;;;;;;16.95;100.00;96036.31;10451602;28;2053;-72
2023/05/08 14:10:32;;;;;;;;;;;;;;;16.92;100.00;96029.59;10449484;28;1855;-73
2023/05/08 14:15:34;;;;;;;;;;;;;;;16.63;100.00;96043.50;10456933;28;1968;-72
2023/05/08 14:20:39;;;;;;;;;;;;;;;16.64;100.00;96036.97;10451785;28;1843;-72
2023/05/08 14:25:42;;;;;;;;;;;;;;;16.59;100.00;96037.09;10456620;28;1978;-73
2023/05/08 14:30:44;;;;;;;;;;;;;;;16.23;100.00;96041.69;10456961;28;1832;-74
2023/05/08 14:35:47;;;;;;;;;;;;;;;17.00;100.00;96025.34;10449533;28;1923;-74
2023/05/08 14:40:49;;;;;;;;;;;;;;;17.25;100.00;96027.44;10453311;28;2025;-75
2023/05/08 14:45:52;;;;;;;;;;;;;;;17.29;100.00;96025.69;10453582;28;1914;-72
2023/05/08 14:50:55;;;;;;;;;;;;;;;17.22;100.00;96016.38;10446100;28;1851;-73
2023/05/08 14:55:58;;;;;;;;;;;;;;;17.08;100.00;96018.34;10448335;28;2105;-73
2023/05/08 15:01:01;;;;;;;;;;;;;;;16.78;100.00;96028.03;10449189;28;1974;-73
2023/05/08 15:06:04;;;;;;;;;;;;;;;17.07;100.00;96023.00;10455692;28;2065;-74
2023/05/08 15:11:07;;;;;;;;;;;;;;;16.98;100.00;96019.38;10453013;28;1984;-80
2023/05/08 15:16:09;;;;;;;;;;;;;;;16.85;100.00;96028.41;10455839;28;2183;-72
2023/05/08 15:21:12;;;;;;;;;;;;;;;16.89;100.00;96023.97;10458101;28;1895;-74
2023/05/08 15:26:14;;;;;;;;;;;;;;;17.23;100.00;96029.63;10461849;28;1935;-74
2023/05/08 15:31:17;;;;;;;;;;;;;;;17.06;100.00;96032.25;10458689;28;2003;-74
2023/05/08 15:36:19;;;;;;;;;;;;;;;17.09;100.00;96026.19;10453787;28;1953;-76
2023/05/08 15:41:22;;;;;;;;;;;;;;;16.89;100.00;96030.19;10449421;28;2029;-76
2023/05/08 15:46:24;;;;;;;;;;;;;;;17.22;100.00;96025.31;10447355;28;1887;-74
2023/05/08 15:51:27;;;;;;;;;;;;;;;17.16;100.00;96023.84;10458801;28;1902;-75
2023/05/08 15:56:30;;;;;;;;;;;;;;;16.92;100.00;96017.91;10455012;28;1961;-75
2023/05/08 16:01:32;;;;;;;;;;;;;;;16.72;100.00;96021.91;10448724;28;1819;-77
2023/05/08 16:06:35;;;;;;;;;;;;;;;16.82;100.00;96023.59;10451597;28;2140;-73
2023/05/08 16:11:37;;;;;;;;;;;;;;;16.32;100.00;96013.53;10441149;28;1890;-73
2023/05/08 16:16:40;;;;;;;;;;;;;;;16.50;100.00;96009.06;10453461;28;1906;-73
2023/05/08 16:21:42;;;;;;;;;;;;;;;16.59;100.00;96007.22;10447028;28;1891;-72
2023/05/08 16:26:45;;;;;;;;;;;;;;;16.52;100.00;96009.56;10439171;28;2216;-74
2023/05/08 16:31:47;;;;;;;;;;;;;;;16.29;100.00;96008.72;10444877;28;1846;-72
2023/05/08 16:36:50;;;;;;;;;;;;;;;16.25;100.00;96006.91;10450910;28;2069;-72
2023/05/08 16:41:52;;;;;;;;;;;;;;;16.24;100.00;96008.81;10445498;28;1962;-73
2023/05/08 16:46:55;;;;;;;;;;;;;;;15.88;100.00;96012.25;10445193;28;2021;-75
2023/05/08 16:51:58;;;;;;;;;;;;;;;15.57;100.00;96013.91;10448158;28;1889;-72
2023/05/08 16:57:00;;;;;;;;;;;;;;;15.71;100.00;96014.75;10442220;28;5001;-72
2023/05/08 17:02:02;;;;;;;;;;;;;;;15.82;100.00;96021.59;10440577;28;1934;-75
2023/05/08 17:07:06;;;;;;;;;;;;;;;15.82;100.00;96026.22;10449555;28;1835;-74
2023/05/08 17:12:08;;;;;;;;;;;;;;;15.67;100.00;96028.13;10449718;28;1858;-72
2023/05/08 17:17:11;;;;;;;;;;;;;;;15.45;100.00;96032.53;10442550;28;1953;-73
2023/05/08 17:22:13;;;;;;;;;;;;;;;15.41;100.00;96040.47;10449039;28;1947;-72
2023/05/08 17:27:15;;;;;;;;;;;;;;;15.52;100.00;96044.59;10447490;28;1883;-76
2023/05/08 17:32:18;;;;;;;;;;;;;;;15.50;100.00;96044.09;10455940;28;2055;-76
2023/05/08 17:37:20;;;;;;;;;;;;;;;15.33;100.00;96046.56;10461882;28;1908;-73
2023/05/08 17:42:23;;;;;;;;;;;;;;;15.35;100.00;96050.59;10445847;28;2096;-75
2023/05/08 17:47:27;;;;;;;;;;;;;;;15.22;100.00;96051.38;10446545;28;1857;-74
2023/05/08 17:52:31;;;;;;;;;;;;;;;15.43;100.00;96056.44;10454143;28;2105;-73
2023/05/08 17:57:34;;;;;;;;;;;;;;;15.56;100.00;96061.88;10450221;28;5024;-73
2023/05/08 18:02:36;;;;;;;;;;;;;;;15.43;100.00;96068.06;10448099;28;2107;-76
2023/05/08 18:07:39;;;;;;;;;;;;;;;15.52;100.00;96068.97;10459272;28;1893;-73
2023/05/08 18:12:42;;;;;;;;;;;;;;;15.33;100.00;96073.66;10448936;28;1847;-74
2023/05/08 18:17:44;;;;;;;;;;;;;;;15.27;100.00;96072.94;10447478;28;1906;-75
2023/05/08 18:22:47;;;;;;;;;;;;;;;15.22;100.00;96072.22;10448231;28;1911;-73
2023/05/08 18:27:49;;;;;;;;;;;;;;;14.87;100.00;96082.50;10441727;28;2072;-73
2023/05/08 18:32:53;;;;;;;;;;;;;;;14.60;100.00;96089.34;10443960;28;1820;-75
2023/05/08 18:37:55;;;;;;;;;;;;;;;14.42;100.00;96083.91;10448006;28;1969;-75
2023/05/08 18:42:58;;;;;;;;;;;;;;;14.31;100.00;96085.91;10455454;28;1890;-74
2023/05/08 18:48:00;;;;;;;;;;;;;;;14.22;100.00;96088.47;10457944;28;1958;-72
2023/05/08 18:53:03;;;;;;;;;;;;;;;14.19;100.00;96091.75;10456946;28;2013;-72
2023/05/08 18:58:06;;;;;;;;;;;;;;;14.16;100.00;96094.22;10450613;28;4965;-74
2023/05/08 19:03:08;;;;;;;;;;;;;;;14.04;100.00;96091.91;10456660;28;1862;-75
2023/05/08 19:08:11;;;;;;;;;;;;;;;13.94;100.00;96092.84;10455847;28;1848;-75
2023/05/08 19:13:14;;;;;;;;;;;;;;;13.76;100.00;96090.88;10459469;28;1967;-76
2023/05/08 19:18:17;;;;;;;;;;;;;;;13.67;100.00;96095.25;10464907;28;1929;-78
2023/05/08 19:23:19;;;;;;;;;;;;;;;13.63;100.00;96102.34;10461968;28;2071;-74
2023/05/08 19:28:22;;;;;;;;;;;;;;;13.51;100.00;96103.53;10461502;28;2107;-76
2023/05/08 19:33:24;;;;;;;;;;;;;;;13.48;100.00;96105.97;10457779;28;1940;-74
2023/05/08 19:38:27;;;;;;;;;;;;;;;13.37;100.00;96105.28;10459831;28;1895;-74
2023/05/08 19:43:29;;;;;;;;;;;;;;;13.29;100.00;96103.16;10460257;28;1731;-73
2023/05/08 19:48:31;;;;;;;;;;;;;;;13.28;100.00;96109.66;10460704;28;1860;-74
2023/05/08 19:53:34;;;;;;;;;;;;;;;13.24;100.00;96106.72;10458325;28;1910;-75
2023/05/08 19:58:37;;;;;;;;;;;;;;;13.16;100.00;96104.59;10459783;28;5000;-74
2023/05/08 20:03:39;;;;;;;;;;;;;;;13.02;100.00;96113.59;10459439;28;1835;-74
2023/05/08 20:08:42;;;;;;;;;;;;;;;12.96;100.00;96116.31;10457827;28;1995;-76
2023/05/08 20:13:45;;;;;;;;;;;;;;;12.88;100.00;96114.22;10450392;28;1878;-74
2023/05/08 20:18:48;;;;;;;;;;;;;;;12.83;100.00;96116.94;10454839;28;2058;-74
2023/05/08 20:23:51;;;;;;;;;;;;;;;12.77;100.00;96115.38;10456624;28;1879;-74
2023/05/08 20:28:53;;;;;;;;;;;;;;;12.73;100.00;96127.03;10454392;28;1833;-74
2023/05/08 20:33:55;;;;;;;;;;;;;;;12.72;100.00;96118.09;10441313;28;1881;-74
2023/05/08 20:38:58;;;;;;;;;;;;;;;12.67;100.00;96108.16;10441514;28;1900;-75
2023/05/08 20:44:00;;;;;;;;;;;;;;;12.63;100.00;96106.28;10452822;28;1756;-74
2023/05/08 20:49:04;;;;;;;;;;;;;;;12.66;100.00;96106.56;10429182;28;2109;-75
2023/05/08 20:54:07;;;;;;;;;;;;;;;12.54;100.00;96099.88;10445349;28;1878;-75
2023/05/08 20:59:10;;;;;;;;;;;;;;;12.47;100.00;96100.19;10447520;28;1906;-74
2023/05/08 21:04:12;;;;;;;;;;;;;;;12.41;100.00;96093.19;10443597;28;2017;-74
2023/05/08 21:09:15;;;;;;;;;;;;;;;12.28;100.00;96093.78;10450801;28;2042;-74
2023/05/08 21:14:17;;;;;;;;;;;;;;;12.18;100.00;96094.63;10450260;28;2089;-74
2023/05/08 21:19:19;;;;;;;;;;;;;;;12.02;100.00;96095.75;10453420;28;1936;-73
2023/05/08 21:24:24;;;;;;;;;;;;;;;11.96;100.00;96096.84;10443541;28;1892;-76
2023/05/08 21:29:26;;;;;;;;;;;;;;;11.96;100.00;96096.84;10446842;28;1776;-73
2023/05/08 21:34:29;;;;;;;;;;;;;;;11.90;100.00;96090.69;10448686;28;1882;-74
2023/05/08 21:39:31;;;;;;;;;;;;;;;11.92;100.00;96085.84;10444380;28;1995;-75
2023/05/08 21:44:34;;;;;;;;;;;;;;;11.82;100.00;96078.56;10446079;28;2183;-73
2023/05/08 21:49:36;;;;;;;;;;;;;;;11.74;100.00;96075.63;10444023;28;1888;-75
2023/05/08 21:54:38;;;;;;;;;;;;;;;11.67;100.00;96072.41;10443987;28;1930;-74
2023/05/08 21:59:41;;;;;;;;;;;;;;;11.52;100.00;96065.97;10439952;28;1914;-74
2023/05/08 22:04:43;;;;;;;;;;;;;;;11.47;100.00;96067.88;10440794;28;1910;-73
2023/05/08 22:09:46;;;;;;;;;;;;;;;11.38;100.00;96065.72;10451377;28;1877;-74
2023/05/08 22:14:48;;;;;;;;;;;;;;;11.29;100.00;96055.78;10460852;28;2051;-75
2023/05/08 22:19:50;;;;;;;;;;;;;;;11.27;100.00;96053.38;10460954;28;1954;-74
2023/05/08 22:24:53;;;;;;;;;;;;;;;11.24;100.00;96056.59;10455238;28;1847;-76
2023/05/08 22:29:55;;;;;;;;;;;;;;;11.18;100.00;96046.09;10436768;28;1913;-73
2023/05/08 22:34:58;;;;;;;;;;;;;;;11.11;100.00;96049.06;10451787;28;2222;-74
2023/05/08 22:40:03;;;;;;;;;;;;;;;10.99;100.00;96052.00;10446404;28;1965;-74
2023/05/08 22:45:05;;;;;;;;;;;;;;;10.97;100.00;96046.09;10448519;28;1969;-73
2023/05/08 22:50:08;;;;;;;;;;;;;;;10.93;100.00;96055.78;10450968;28;1866;-74
2023/05/08 22:55:10;;;;;;;;;;;;;;;10.86;100.00;96051.75;10448130;28;1950;-71
2023/05/08 23:00:15;;;;;;;;;;;;;;;10.76;100.00;96045.31;10434535;28;5046;-72
2023/05/08 23:05:18;;;;;;;;;;;;;;;10.70;100.00;96049.06;10455659;28;1867;-77
2023/05/08 23:10:20;;;;;;;;;;;;;;;10.59;100.00;96057.38;10450902;28;2053;-73
2023/05/08 23:15:24;;;;;;;;;;;;;;;10.62;100.00;96052.25;10448506;28;1857;-72
2023/05/08 23:20:26;;;;;;;;;;;;;;;10.54;100.00;96048.22;10451575;28;1918;-73
2023/05/08 23:25:28;;;;;;;;;;;;;;;10.52;100.00;96041.50;10445655;28;1890;-73
2023/05/08 23:30:32;;;;;;;;;;;;;;;10.50;100.00;96040.97;10453988;28;1898;-72
2023/05/08 23:35:35;;;;;;;;;;;;;;;10.42;100.00;96042.28;10451578;28;2004;-74
2023/05/08 23:40:37;;;;;;;;;;;;;;;10.35;100.00;96025.59;10447069;28;1995;-74
2023/05/08 23:45:40;;;;;;;;;;;;;;;10.24;100.00;96022.09;10453636;28;1878;-76
2023/05/08 23:50:42;;;;;;;;;;;;;;;10.19;100.00;96015.88;10455099;28;1843;-76
2023/05/08 23:55:45;;;;;;;;;;;;;;;10.16;100.00;96017.19;10451969;28;2001;-74
